Terminal Aerodrome Forecast
Issued by NWS

Home | Current Version | Previous Version | Text Only | Print | Product List | Glossary On
Versions: 1 2 3 4 5 6 7 8 9 10 11 12 13 14 15 16 17 18 19
490
FTUS41 KCAR 221120
TAFBHB
TAF
KBHB 221120Z 2212/2312 21008KT P6SM SCT250
     FM222300 20009KT 5SM BR OVC010
     FM230200 20009KT 1/2SM -SHRA FG OVC003=

USA.gov is the U.S. government's official web portal to all federal, state and local government web resources and services.